sensor_id;sensor_type;location;lat;lon;timestamp;temperature;humidity
74792;SHT30;63319;46.046;17.802;2023-10-31T00:02:30;15.82;61.18
74792;SHT30;63319;46.046;17.802;2023-10-31T00:05:34;15.81;60.97
74792;SHT30;63319;46.046;17.802;2023-10-31T00:08:37;15.85;61.00
74792;SHT30;63319;46.046;17.802;2023-10-31T00:11:41;15.91;60.85
74792;SHT30;63319;46.046;17.802;2023-10-31T00:14:45;15.89;61.00
74792;SHT30;63319;46.046;17.802;2023-10-31T00:17:48;15.81;61.05
74792;SHT30;63319;46.046;17.802;2023-10-31T00:20:51;15.82;61.33
74792;SHT30;63319;46.046;17.802;2023-10-31T00:23:54;15.72;61.33
74792;SHT30;63319;46.046;17.802;2023-10-31T00:26:57;15.78;61.43
74792;SHT30;63319;46.046;17.802;2023-10-31T00:30:00;15.79;61.42
74792;SHT30;63319;46.046;17.802;2023-10-31T00:33:04;15.72;61.84
74792;SHT30;63319;46.046;17.802;2023-10-31T00:36:07;15.72;61.73
74792;SHT30;63319;46.046;17.802;2023-10-31T00:39:10;15.69;61.68
74792;SHT30;63319;46.046;17.802;2023-10-31T00:42:13;15.62;62.09
74792;SHT30;63319;46.046;17.802;2023-10-31T00:45:17;15.62;62.00
74792;SHT30;63319;46.046;17.802;2023-10-31T00:48:20;15.65;62.03
74792;SHT30;63319;46.046;17.802;2023-10-31T00:51:25;15.72;61.54
74792;SHT30;63319;46.046;17.802;2023-10-31T00:54:28;15.67;61.16
74792;SHT30;63319;46.046;17.802;2023-10-31T00:57:30;15.78;60.84
74792;SHT30;63319;46.046;17.802;2023-10-31T01:00:33;15.75;60.67
74792;SHT30;63319;46.046;17.802;2023-10-31T01:03:37;15.89;60.15
74792;SHT30;63319;46.046;17.802;2023-10-31T01:06:41;15.91;59.95
74792;SHT30;63319;46.046;17.802;2023-10-31T01:09:45;15.91;60.09
74792;SHT30;63319;46.046;17.802;2023-10-31T01:12:47;15.81;61.09
74792;SHT30;63319;46.046;17.802;2023-10-31T01:15:50;15.81;61.35
74792;SHT30;63319;46.046;17.802;2023-10-31T01:18:53;15.77;61.42
74792;SHT30;63319;46.046;17.802;2023-10-31T01:21:56;15.84;59.59
74792;SHT30;63319;46.046;17.802;2023-10-31T01:24:59;15.91;59.05
74792;SHT30;63319;46.046;17.802;2023-10-31T01:28:03;15.99;58.73
74792;SHT30;63319;46.046;17.802;2023-10-31T01:31:05;15.91;59.15
74792;SHT30;63319;46.046;17.802;2023-10-31T01:34:09;15.91;58.95
74792;SHT30;63319;46.046;17.802;2023-10-31T01:37:11;15.88;59.18
74792;SHT30;63319;46.046;17.802;2023-10-31T01:40:16;15.87;59.55
74792;SHT30;63319;46.046;17.802;2023-10-31T01:43:30;15.79;59.77
74792;SHT30;63319;46.046;17.802;2023-10-31T01:46:33;15.74;59.84
74792;SHT30;63319;46.046;17.802;2023-10-31T01:49:38;15.67;60.36
74792;SHT30;63319;46.046;17.802;2023-10-31T01:52:41;15.62;60.27
74792;SHT30;63319;46.046;17.802;2023-10-31T01:55:45;15.67;59.93
74792;SHT30;63319;46.046;17.802;2023-10-31T01:58:49;15.74;59.79
74792;SHT30;63319;46.046;17.802;2023-10-31T02:01:53;15.65;60.10
74792;SHT30;63319;46.046;17.802;2023-10-31T02:04:59;15.62;60.19
74792;SHT30;63319;46.046;17.802;2023-10-31T02:08:02;15.67;60.23
74792;SHT30;63319;46.046;17.802;2023-10-31T02:11:06;15.62;60.29
74792;SHT30;63319;46.046;17.802;2023-10-31T02:14:13;15.58;60.22
74792;SHT30;63319;46.046;17.802;2023-10-31T02:17:16;15.58;60.16
74792;SHT30;63319;46.046;17.802;2023-10-31T02:20:19;15.68;59.08
74792;SHT30;63319;46.046;17.802;2023-10-31T02:23:22;15.78;57.99
74792;SHT30;63319;46.046;17.802;2023-10-31T02:26:33;15.79;57.51
74792;SHT30;63319;46.046;17.802;2023-10-31T02:29:36;15.89;57.04
74792;SHT30;63319;46.046;17.802;2023-10-31T02:32:39;15.89;56.85
74792;SHT30;63319;46.046;17.802;2023-10-31T02:35:42;15.89;57.19
74792;SHT30;63319;46.046;17.802;2023-10-31T02:38:46;15.87;57.60
74792;SHT30;63319;46.046;17.802;2023-10-31T02:41:49;15.81;58.31
74792;SHT30;63319;46.046;17.802;2023-10-31T02:44:52;15.85;58.54
74792;SHT30;63319;46.046;17.802;2023-10-31T02:47:55;15.69;59.30
74792;SHT30;63319;46.046;17.802;2023-10-31T02:50:59;15.68;59.50
74792;SHT30;63319;46.046;17.802;2023-10-31T02:54:01;15.68;59.42
74792;SHT30;63319;46.046;17.802;2023-10-31T02:57:04;15.64;59.46
74792;SHT30;63319;46.046;17.802;2023-10-31T03:00:08;15.65;59.38
74792;SHT30;63319;46.046;17.802;2023-10-31T03:03:11;15.64;59.18
74792;SHT30;63319;46.046;17.802;2023-10-31T03:06:14;15.55;59.30
74792;SHT30;63319;46.046;17.802;2023-10-31T03:09:17;15.64;60.00
74792;SHT30;63319;46.046;17.802;2023-10-31T03:12:20;15.41;63.09
74792;SHT30;63319;46.046;17.802;2023-10-31T03:15:23;15.23;64.47
74792;SHT30;63319;46.046;17.802;2023-10-31T03:18:26;15.07;65.37
74792;SHT30;63319;46.046;17.802;2023-10-31T03:21:29;14.96;64.51
74792;SHT30;63319;46.046;17.802;2023-10-31T03:24:32;14.83;66.28
74792;SHT30;63319;46.046;17.802;2023-10-31T03:27:35;14.79;65.54
74792;SHT30;63319;46.046;17.802;2023-10-31T03:30:39;14.71;66.40
74792;SHT30;63319;46.046;17.802;2023-10-31T03:33:42;14.81;65.44
74792;SHT30;63319;46.046;17.802;2023-10-31T03:36:46;14.64;65.16
74792;SHT30;63319;46.046;17.802;2023-10-31T03:39:49;14.71;65.72
74792;SHT30;63319;46.046;17.802;2023-10-31T03:42:51;14.72;67.42
74792;SHT30;63319;46.046;17.802;2023-10-31T03:45:55;14.67;66.00
74792;SHT30;63319;46.046;17.802;2023-10-31T03:48:58;14.75;63.41
74792;SHT30;63319;46.046;17.802;2023-10-31T03:52:00;14.81;63.09
74792;SHT30;63319;46.046;17.802;2023-10-31T03:55:04;14.92;63.02
74792;SHT30;63319;46.046;17.802;2023-10-31T03:58:07;14.88;64.49
74792;SHT30;63319;46.046;17.802;2023-10-31T04:01:10;14.93;63.90
74792;SHT30;63319;46.046;17.802;2023-10-31T04:04:13;15.00;62.77
74792;SHT30;63319;46.046;17.802;2023-10-31T04:07:18;14.95;64.02
74792;SHT30;63319;46.046;17.802;2023-10-31T04:10:21;14.90;63.85
74792;SHT30;63319;46.046;17.802;2023-10-31T04:13:24;14.85;64.24
74792;SHT30;63319;46.046;17.802;2023-10-31T04:16:27;14.98;63.46
74792;SHT30;63319;46.046;17.802;2023-10-31T04:19:30;14.93;62.97
74792;SHT30;63319;46.046;17.802;2023-10-31T04:22:33;15.09;62.23
74792;SHT30;63319;46.046;17.802;2023-10-31T04:25:36;15.14;60.87
74792;SHT30;63319;46.046;17.802;2023-10-31T04:28:39;15.23;60.98
74792;SHT30;63319;46.046;17.802;2023-10-31T04:31:42;15.23;61.08
74792;SHT30;63319;46.046;17.802;2023-10-31T04:34:46;15.20;61.31
74792;SHT30;63319;46.046;17.802;2023-10-31T04:37:49;15.20;60.73
74792;SHT30;63319;46.046;17.802;2023-10-31T04:40:52;15.14;60.66
74792;SHT30;63319;46.046;17.802;2023-10-31T04:43:56;15.18;60.36
74792;SHT30;63319;46.046;17.802;2023-10-31T04:46:59;15.18;60.36
74792;SHT30;63319;46.046;17.802;2023-10-31T04:50:02;15.06;61.36
74792;SHT30;63319;46.046;17.802;2023-10-31T04:53:05;15.09;61.42
74792;SHT30;63319;46.046;17.802;2023-10-31T04:56:15;14.96;62.35
74792;SHT30;63319;46.046;17.802;2023-10-31T04:59:18;15.06;61.96
74792;SHT30;63319;46.046;17.802;2023-10-31T05:02:22;14.98;62.01
74792;SHT30;63319;46.046;17.802;2023-10-31T05:05:28;14.99;61.41
74792;SHT30;63319;46.046;17.802;2023-10-31T05:08:31;14.98;61.52
74792;SHT30;63319;46.046;17.802;2023-10-31T05:11:34;15.02;61.74
74792;SHT30;63319;46.046;17.802;2023-10-31T05:14:37;14.99;61.62
74792;SHT30;63319;46.046;17.802;2023-10-31T05:17:41;15.00;62.19
74792;SHT30;63319;46.046;17.802;2023-10-31T05:20:44;14.81;62.12
74792;SHT30;63319;46.046;17.802;2023-10-31T05:23:47;14.79;61.95
74792;SHT30;63319;46.046;17.802;2023-10-31T05:26:50;14.79;61.47
74792;SHT30;63319;46.046;17.802;2023-10-31T05:29:53;14.72;61.25
74792;SHT30;63319;46.046;17.802;2023-10-31T05:32:57;14.86;60.71
74792;SHT30;63319;46.046;17.802;2023-10-31T05:36:00;14.92;60.10
74792;SHT30;63319;46.046;17.802;2023-10-31T05:39:03;14.93;60.28
74792;SHT30;63319;46.046;17.802;2023-10-31T05:42:07;14.89;60.21
74792;SHT30;63319;46.046;17.802;2023-10-31T05:45:10;14.92;60.27
74792;SHT30;63319;46.046;17.802;2023-10-31T05:48:13;14.99;59.79
74792;SHT30;63319;46.046;17.802;2023-10-31T05:51:18;14.98;59.61
74792;SHT30;63319;46.046;17.802;2023-10-31T05:54:21;15.03;59.46
74792;SHT30;63319;46.046;17.802;2023-10-31T05:57:24;14.98;59.73
74792;SHT30;63319;46.046;17.802;2023-10-31T06:00:27;15.06;59.62
74792;SHT30;63319;46.046;17.802;2023-10-31T06:03:30;14.90;60.41
74792;SHT30;63319;46.046;17.802;2023-10-31T06:06:37;15.03;60.43
74792;SHT30;63319;46.046;17.802;2023-10-31T06:09:40;15.02;60.42
74792;SHT30;63319;46.046;17.802;2023-10-31T06:12:43;15.02;60.07
74792;SHT30;63319;46.046;17.802;2023-10-31T06:15:46;15.09;60.20
74792;SHT30;63319;46.046;17.802;2023-10-31T06:18:49;15.13;59.68
74792;SHT30;63319;46.046;17.802;2023-10-31T06:21:52;15.10;59.60
74792;SHT30;63319;46.046;17.802;2023-10-31T06:24:55;15.24;59.47
74792;SHT30;63319;46.046;17.802;2023-10-31T06:28:01;15.31;59.43
74792;SHT30;63319;46.046;17.802;2023-10-31T06:31:03;15.41;58.93
74792;SHT30;63319;46.046;17.802;2023-10-31T06:34:07;15.40;59.27
74792;SHT30;63319;46.046;17.802;2023-10-31T06:37:10;15.39;59.58
74792;SHT30;63319;46.046;17.802;2023-10-31T06:40:15;15.37;59.70
74792;SHT30;63319;46.046;17.802;2023-10-31T06:43:18;15.33;60.36
74792;SHT30;63319;46.046;17.802;2023-10-31T06:46:21;15.19;60.81
74792;SHT30;63319;46.046;17.802;2023-10-31T06:49:24;15.31;60.50
74792;SHT30;63319;46.046;17.802;2023-10-31T06:52:27;15.39;60.54
74792;SHT30;63319;46.046;17.802;2023-10-31T06:55:30;15.37;60.94
74792;SHT30;63319;46.046;17.802;2023-10-31T06:58:32;15.50;60.21
74792;SHT30;63319;46.046;17.802;2023-10-31T07:01:36;15.44;60.80
74792;SHT30;63319;46.046;17.802;2023-10-31T07:04:39;15.57;60.32
74792;SHT30;63319;46.046;17.802;2023-10-31T07:07:42;15.59;60.06
74792;SHT30;63319;46.046;17.802;2023-10-31T07:10:45;15.68;60.35
74792;SHT30;63319;46.046;17.802;2023-10-31T07:13:48;15.68;60.12
74792;SHT30;63319;46.046;17.802;2023-10-31T07:16:51;15.84;60.25
74792;SHT30;63319;46.046;17.802;2023-10-31T07:19:54;15.87;60.43
74792;SHT30;63319;46.046;17.802;2023-10-31T07:22:57;16.02;59.86
74792;SHT30;63319;46.046;17.802;2023-10-31T07:25:59;16.20;58.40
74792;SHT30;63319;46.046;17.802;2023-10-31T07:29:03;16.42;57.41
74792;SHT30;63319;46.046;17.802;2023-10-31T07:32:06;16.59;57.55
74792;SHT30;63319;46.046;17.802;2023-10-31T07:35:12;16.70;57.76
74792;SHT30;63319;46.046;17.802;2023-10-31T07:38:15;16.78;57.93
74792;SHT30;63319;46.046;17.802;2023-10-31T07:41:18;16.85;57.89
74792;SHT30;63319;46.046;17.802;2023-10-31T07:44:21;16.95;57.46
74792;SHT30;63319;46.046;17.802;2023-10-31T07:47:24;17.14;57.13
74792;SHT30;63319;46.046;17.802;2023-10-31T07:50:27;17.39;56.92
74792;SHT30;63319;46.046;17.802;2023-10-31T07:53:30;17.50;56.23
74792;SHT30;63319;46.046;17.802;2023-10-31T07:56:33;17.67;55.83
74792;SHT30;63319;46.046;17.802;2023-10-31T07:59:37;17.66;56.14
74792;SHT30;63319;46.046;17.802;2023-10-31T08:02:40;17.80;56.15
74792;SHT30;63319;46.046;17.802;2023-10-31T08:05:43;18.02;55.86
74792;SHT30;63319;46.046;17.802;2023-10-31T08:08:47;18.10;55.56
74792;SHT30;63319;46.046;17.802;2023-10-31T08:11:51;18.05;55.35
74792;SHT30;63319;46.046;17.802;2023-10-31T08:14:54;18.11;54.89
74792;SHT30;63319;46.046;17.802;2023-10-31T08:17:57;18.07;54.92
74792;SHT30;63319;46.046;17.802;2023-10-31T08:21:00;18.15;55.22
74792;SHT30;63319;46.046;17.802;2023-10-31T08:24:04;18.32;55.03
74792;SHT30;63319;46.046;17.802;2023-10-31T08:27:08;18.31;54.59
74792;SHT30;63319;46.046;17.802;2023-10-31T08:30:14;18.48;53.74
74792;SHT30;63319;46.046;17.802;2023-10-31T08:33:18;18.48;54.12
74792;SHT30;63319;46.046;17.802;2023-10-31T08:36:21;18.59;53.69
74792;SHT30;63319;46.046;17.802;2023-10-31T08:39:24;18.72;53.71
74792;SHT30;63319;46.046;17.802;2023-10-31T08:42:27;18.80;53.78
74792;SHT30;63319;46.046;17.802;2023-10-31T08:45:30;19.00;53.27
74792;SHT30;63319;46.046;17.802;2023-10-31T08:48:33;19.06;53.16
74792;SHT30;63319;46.046;17.802;2023-10-31T08:51:36;19.36;52.23
74792;SHT30;63319;46.046;17.802;2023-10-31T08:54:39;19.36;52.52
74792;SHT30;63319;46.046;17.802;2023-10-31T08:57:42;19.55;52.34
74792;SHT30;63319;46.046;17.802;2023-10-31T09:00:45;19.79;51.66
74792;SHT30;63319;46.046;17.802;2023-10-31T09:03:48;19.96;51.22
74792;SHT30;63319;46.046;17.802;2023-10-31T09:06:52;19.99;50.97
74792;SHT30;63319;46.046;17.802;2023-10-31T09:09:55;19.69;51.67
74792;SHT30;63319;46.046;17.802;2023-10-31T09:12:58;19.81;51.18
74792;SHT30;63319;46.046;17.802;2023-10-31T09:16:00;19.87;50.91
74792;SHT30;63319;46.046;17.802;2023-10-31T09:19:03;19.81;51.69
74792;SHT30;63319;46.046;17.802;2023-10-31T09:22:06;19.73;51.53
74792;SHT30;63319;46.046;17.802;2023-10-31T09:25:09;19.72;51.46
74792;SHT30;63319;46.046;17.802;2023-10-31T09:28:13;19.55;51.13
74792;SHT30;63319;46.046;17.802;2023-10-31T09:31:17;19.39;52.63
74792;SHT30;63319;46.046;17.802;2023-10-31T09:34:20;19.54;52.26
74792;SHT30;63319;46.046;17.802;2023-10-31T09:37:23;19.36;52.98
74792;SHT30;63319;46.046;17.802;2023-10-31T09:40:26;19.32;53.38
74792;SHT30;63319;46.046;17.802;2023-10-31T09:43:29;19.25;54.24
74792;SHT30;63319;46.046;17.802;2023-10-31T09:46:32;19.25;54.63
74792;SHT30;63319;46.046;17.802;2023-10-31T09:49:36;19.27;55.31
74792;SHT30;63319;46.046;17.802;2023-10-31T09:52:39;19.27;55.13
74792;SHT30;63319;46.046;17.802;2023-10-31T09:55:43;19.25;54.67
74792;SHT30;63319;46.046;17.802;2023-10-31T09:58:46;19.23;55.12
74792;SHT30;63319;46.046;17.802;2023-10-31T10:01:49;19.28;55.35
74792;SHT30;63319;46.046;17.802;2023-10-31T10:04:53;19.58;54.80
74792;SHT30;63319;46.046;17.802;2023-10-31T10:07:56;19.81;54.57
74792;SHT30;63319;46.046;17.802;2023-10-31T10:10:59;19.99;54.62
74792;SHT30;63319;46.046;17.802;2023-10-31T10:14:05;19.97;54.54
74792;SHT30;63319;46.046;17.802;2023-10-31T10:17:24;19.86;54.74
74792;SHT30;63319;46.046;17.802;2023-10-31T10:20:27;19.72;55.15
74792;SHT30;63319;46.046;17.802;2023-10-31T10:23:30;19.57;55.92
74792;SHT30;63319;46.046;17.802;2023-10-31T10:26:38;19.30;56.78
74792;SHT30;63319;46.046;17.802;2023-10-31T10:29:41;19.10;57.40
74792;SHT30;63319;46.046;17.802;2023-10-31T10:32:44;18.90;58.24
74792;SHT30;63319;46.046;17.802;2023-10-31T10:35:47;18.83;58.84
74792;SHT30;63319;46.046;17.802;2023-10-31T10:38:51;17.96;70.97
74792;SHT30;63319;46.046;17.802;2023-10-31T10:42:00;16.98;78.53
74792;SHT30;63319;46.046;17.802;2023-10-31T10:45:04;16.15;91.52
74792;SHT30;63319;46.046;17.802;2023-10-31T10:48:11;15.78;87.83
74792;SHT30;63319;46.046;17.802;2023-10-31T10:51:29;15.69;85.87
74792;SHT30;63319;46.046;17.802;2023-10-31T10:58:05;15.53;87.08
74792;SHT30;63319;46.046;17.802;2023-10-31T11:01:09;15.24;91.07
74792;SHT30;63319;46.046;17.802;2023-10-31T11:04:13;15.24;91.65
74792;SHT30;63319;46.046;17.802;2023-10-31T11:07:17;15.33;92.08
74792;SHT30;63319;46.046;17.802;2023-10-31T11:10:21;15.40;92.39
74792;SHT30;63319;46.046;17.802;2023-10-31T11:13:24;15.54;91.07
74792;SHT30;63319;46.046;17.802;2023-10-31T11:16:41;15.58;91.40
74792;SHT30;63319;46.046;17.802;2023-10-31T11:19:45;15.51;89.57
74792;SHT30;63319;46.046;17.802;2023-10-31T11:22:54;14.93;89.71
74792;SHT30;63319;46.046;17.802;2023-10-31T11:26:00;14.76;90.82
74792;SHT30;63319;46.046;17.802;2023-10-31T11:29:06;14.76;92.00
74792;SHT30;63319;46.046;17.802;2023-10-31T11:32:10;14.85;92.44
74792;SHT30;63319;46.046;17.802;2023-10-31T11:35:14;14.76;91.91
74792;SHT30;63319;46.046;17.802;2023-10-31T11:38:30;14.75;92.28
74792;SHT30;63319;46.046;17.802;2023-10-31T11:41:33;14.58;91.67
74792;SHT30;63319;46.046;17.802;2023-10-31T11:44:54;14.68;92.46
74792;SHT30;63319;46.046;17.802;2023-10-31T11:47:58;14.31;89.92
74792;SHT30;63319;46.046;17.802;2023-10-31T11:51:01;14.45;92.18
74792;SHT30;63319;46.046;17.802;2023-10-31T11:54:05;14.45;91.98
74792;SHT30;63319;46.046;17.802;2023-10-31T11:57:11;14.44;92.64
74792;SHT30;63319;46.046;17.802;2023-10-31T12:00:21;14.45;92.39
74792;SHT30;63319;46.046;17.802;2023-10-31T12:03:25;14.34;93.11
74792;SHT30;63319;46.046;17.802;2023-10-31T12:06:28;14.33;93.28
74792;SHT30;63319;46.046;17.802;2023-10-31T12:09:31;14.38;93.31
74792;SHT30;63319;46.046;17.802;2023-10-31T12:12:35;14.41;93.74
74792;SHT30;63319;46.046;17.802;2023-10-31T12:15:51;14.33;92.59
74792;SHT30;63319;46.046;17.802;2023-10-31T12:19:02;14.44;93.65
74792;SHT30;63319;46.046;17.802;2023-10-31T12:22:13;14.65;94.11
74792;SHT30;63319;46.046;17.802;2023-10-31T12:25:16;14.67;93.15
74792;SHT30;63319;46.046;17.802;2023-10-31T12:28:21;14.64;91.81
74792;SHT30;63319;46.046;17.802;2023-10-31T12:31:25;14.60;90.89
74792;SHT30;63319;46.046;17.802;2023-10-31T12:34:28;14.61;92.46
74792;SHT30;63319;46.046;17.802;2023-10-31T12:37:31;14.71;91.82
74792;SHT30;63319;46.046;17.802;2023-10-31T12:40:35;14.62;92.07
74792;SHT30;63319;46.046;17.802;2023-10-31T12:43:38;14.67;91.54
74792;SHT30;63319;46.046;17.802;2023-10-31T12:46:41;14.60;92.05
74792;SHT30;63319;46.046;17.802;2023-10-31T12:49:44;14.72;92.04
74792;SHT30;63319;46.046;17.802;2023-10-31T12:52:53;14.79;92.38
74792;SHT30;63319;46.046;17.802;2023-10-31T12:55:56;14.78;92.57
74792;SHT30;63319;46.046;17.802;2023-10-31T12:58:59;14.75;91.93
74792;SHT30;63319;46.046;17.802;2023-10-31T13:02:03;14.78;90.98
74792;SHT30;63319;46.046;17.802;2023-10-31T13:05:13;14.82;91.75
74792;SHT30;63319;46.046;17.802;2023-10-31T13:08:17;14.93;90.73
74792;SHT30;63319;46.046;17.802;2023-10-31T13:11:20;16.50;89.33
74792;SHT30;63319;46.046;17.802;2023-10-31T13:14:28;17.63;84.37
74792;SHT30;63319;46.046;17.802;2023-10-31T13:17:32;17.74;81.03
74792;SHT30;63319;46.046;17.802;2023-10-31T13:20:35;18.07;80.38
74792;SHT30;63319;46.046;17.802;2023-10-31T13:23:39;18.44;79.15
74792;SHT30;63319;46.046;17.802;2023-10-31T13:26:41;17.97;77.47
74792;SHT30;63319;46.046;17.802;2023-10-31T13:29:46;17.74;79.49
74792;SHT30;63319;46.046;17.802;2023-10-31T13:32:52;17.79;80.43
74792;SHT30;63319;46.046;17.802;2023-10-31T13:35:56;17.86;78.11
74792;SHT30;63319;46.046;17.802;2023-10-31T13:38:58;17.71;81.30
74792;SHT30;63319;46.046;17.802;2023-10-31T13:42:01;17.69;80.11
74792;SHT30;63319;46.046;17.802;2023-10-31T13:45:05;17.66;80.59
74792;SHT30;63319;46.046;17.802;2023-10-31T13:48:09;18.11;79.32
74792;SHT30;63319;46.046;17.802;2023-10-31T13:51:14;17.96;79.81
74792;SHT30;63319;46.046;17.802;2023-10-31T13:54:17;17.76;81.06
74792;SHT30;63319;46.046;17.802;2023-10-31T13:57:20;17.60;78.32
74792;SHT30;63319;46.046;17.802;2023-10-31T14:00:22;17.66;77.70
74792;SHT30;63319;46.046;17.802;2023-10-31T14:03:25;17.91;78.49
74792;SHT30;63319;46.046;17.802;2023-10-31T14:06:29;17.91;79.41
74792;SHT30;63319;46.046;17.802;2023-10-31T14:09:35;17.53;77.56
74792;SHT30;63319;46.046;17.802;2023-10-31T14:12:38;17.38;78.85
74792;SHT30;63319;46.046;17.802;2023-10-31T14:15:41;17.22;79.91
74792;SHT30;63319;46.046;17.802;2023-10-31T14:18:44;17.18;78.95
74792;SHT30;63319;46.046;17.802;2023-10-31T14:21:48;16.98;79.14
74792;SHT30;63319;46.046;17.802;2023-10-31T14:24:52;16.85;79.06
74792;SHT30;63319;46.046;17.802;2023-10-31T14:27:55;16.77;78.41
74792;SHT30;63319;46.046;17.802;2023-10-31T14:30:58;16.59;80.26
74792;SHT30;63319;46.046;17.802;2023-10-31T14:34:01;16.30;82.25
74792;SHT30;63319;46.046;17.802;2023-10-31T14:37:04;16.17;82.95
74792;SHT30;63319;46.046;17.802;2023-10-31T14:40:09;16.01;84.47
74792;SHT30;63319;46.046;17.802;2023-10-31T14:43:12;15.94;83.33
74792;SHT30;63319;46.046;17.802;2023-10-31T14:46:21;15.82;85.41
74792;SHT30;63319;46.046;17.802;2023-10-31T14:49:24;15.62;84.42
74792;SHT30;63319;46.046;17.802;2023-10-31T14:52:27;15.54;86.12
74792;SHT30;63319;46.046;17.802;2023-10-31T14:55:30;15.31;87.83
74792;SHT30;63319;46.046;17.802;2023-10-31T14:58:32;15.30;86.74
74792;SHT30;63319;46.046;17.802;2023-10-31T15:01:35;15.23;87.11
74792;SHT30;63319;46.046;17.802;2023-10-31T15:04:38;15.20;88.06
74792;SHT30;63319;46.046;17.802;2023-10-31T15:07:41;15.16;87.55
74792;SHT30;63319;46.046;17.802;2023-10-31T15:10:44;15.06;87.59
74792;SHT30;63319;46.046;17.802;2023-10-31T15:13:47;14.90;88.11
74792;SHT30;63319;46.046;17.802;2023-10-31T15:16:51;14.78;89.27
74792;SHT30;63319;46.046;17.802;2023-10-31T15:19:54;14.73;89.26
74792;SHT30;63319;46.046;17.802;2023-10-31T15:22:57;14.73;89.12
74792;SHT30;63319;46.046;17.802;2023-10-31T15:26:00;14.67;89.30
74792;SHT30;63319;46.046;17.802;2023-10-31T15:29:04;14.46;90.44
74792;SHT30;63319;46.046;17.802;2023-10-31T15:32:08;14.33;90.98
74792;SHT30;63319;46.046;17.802;2023-10-31T15:35:12;14.30;90.58
74792;SHT30;63319;46.046;17.802;2023-10-31T15:38:16;14.18;90.96
74792;SHT30;63319;46.046;17.802;2023-10-31T15:41:19;14.10;91.31
74792;SHT30;63319;46.046;17.802;2023-10-31T15:44:24;14.09;91.80
74792;SHT30;63319;46.046;17.802;2023-10-31T15:47:27;14.00;91.91
74792;SHT30;63319;46.046;17.802;2023-10-31T15:50:30;13.89;92.04
74792;SHT30;63319;46.046;17.802;2023-10-31T15:53:33;13.87;91.98
74792;SHT30;63319;46.046;17.802;2023-10-31T15:56:36;13.83;91.88
74792;SHT30;63319;46.046;17.802;2023-10-31T15:59:39;13.75;91.84
74792;SHT30;63319;46.046;17.802;2023-10-31T16:02:42;13.65;92.20
74792;SHT30;63319;46.046;17.802;2023-10-31T16:05:46;13.69;91.95
74792;SHT30;63319;46.046;17.802;2023-10-31T16:08:49;13.61;91.99
74792;SHT30;63319;46.046;17.802;2023-10-31T16:11:52;13.62;91.93
74792;SHT30;63319;46.046;17.802;2023-10-31T16:14:55;13.61;92.86
74792;SHT30;63319;46.046;17.802;2023-10-31T16:17:58;13.55;92.42
74792;SHT30;63319;46.046;17.802;2023-10-31T16:21:04;13.35;92.71
74792;SHT30;63319;46.046;17.802;2023-10-31T16:24:09;13.24;93.20
74792;SHT30;63319;46.046;17.802;2023-10-31T16:27:12;13.14;92.78
74792;SHT30;63319;46.046;17.802;2023-10-31T16:30:15;13.11;93.17
74792;SHT30;63319;46.046;17.802;2023-10-31T16:33:18;13.18;93.31
74792;SHT30;63319;46.046;17.802;2023-10-31T16:36:21;13.37;92.90
74792;SHT30;63319;46.046;17.802;2023-10-31T16:39:24;13.77;89.87
74792;SHT30;63319;46.046;17.802;2023-10-31T16:42:27;13.63;86.58
74792;SHT30;63319;46.046;17.802;2023-10-31T16:45:35;13.58;84.53
74792;SHT30;63319;46.046;17.802;2023-10-31T16:48:38;13.66;82.22
74792;SHT30;63319;46.046;17.802;2023-10-31T16:51:40;13.62;81.73
74792;SHT30;63319;46.046;17.802;2023-10-31T16:54:43;13.34;83.12
74792;SHT30;63319;46.046;17.802;2023-10-31T16:57:46;13.37;82.63
74792;SHT30;63319;46.046;17.802;2023-10-31T17:00:50;13.32;81.17
74792;SHT30;63319;46.046;17.802;2023-10-31T17:03:53;13.08;82.42
74792;SHT30;63319;46.046;17.802;2023-10-31T17:06:56;12.87;82.09
74792;SHT30;63319;46.046;17.802;2023-10-31T17:09:59;12.55;83.13
74792;SHT30;63319;46.046;17.802;2023-10-31T17:13:02;12.60;82.42
74792;SHT30;63319;46.046;17.802;2023-10-31T17:16:06;12.66;82.53
74792;SHT30;63319;46.046;17.802;2023-10-31T17:19:10;12.63;82.26
74792;SHT30;63319;46.046;17.802;2023-10-31T17:22:13;12.57;81.88
74792;SHT30;63319;46.046;17.802;2023-10-31T17:25:16;12.56;82.29
74792;SHT30;63319;46.046;17.802;2023-10-31T17:28:19;12.46;83.33
74792;SHT30;63319;46.046;17.802;2023-10-31T17:31:23;12.52;81.68
74792;SHT30;63319;46.046;17.802;2023-10-31T17:34:26;12.43;82.32
74792;SHT30;63319;46.046;17.802;2023-10-31T17:37:29;12.29;82.77
74792;SHT30;63319;46.046;17.802;2023-10-31T17:40:32;12.42;84.75
74792;SHT30;63319;46.046;17.802;2023-10-31T17:43:35;12.32;85.69
74792;SHT30;63319;46.046;17.802;2023-10-31T17:46:40;12.26;85.35
74792;SHT30;63319;46.046;17.802;2023-10-31T17:49:43;12.05;85.73
74792;SHT30;63319;46.046;17.802;2023-10-31T17:52:46;12.08;86.40
74792;SHT30;63319;46.046;17.802;2023-10-31T17:55:49;12.17;86.19
74792;SHT30;63319;46.046;17.802;2023-10-31T17:58:53;12.24;85.80
74792;SHT30;63319;46.046;17.802;2023-10-31T18:01:56;12.26;85.62
74792;SHT30;63319;46.046;17.802;2023-10-31T18:05:01;11.90;86.11
74792;SHT30;63319;46.046;17.802;2023-10-31T18:08:05;11.67;86.72
74792;SHT30;63319;46.046;17.802;2023-10-31T18:11:10;11.46;87.74
74792;SHT30;63319;46.046;17.802;2023-10-31T18:14:15;11.57;86.43
74792;SHT30;63319;46.046;17.802;2023-10-31T18:17:18;11.47;86.51
74792;SHT30;63319;46.046;17.802;2023-10-31T18:20:22;11.40;87.19
74792;SHT30;63319;46.046;17.802;2023-10-31T18:23:25;11.29;87.62
74792;SHT30;63319;46.046;17.802;2023-10-31T18:26:29;11.20;88.17
74792;SHT30;63319;46.046;17.802;2023-10-31T18:29:32;11.22;87.35
74792;SHT30;63319;46.046;17.802;2023-10-31T18:32:36;11.11;87.48
74792;SHT30;63319;46.046;17.802;2023-10-31T18:35:39;11.05;88.22
74792;SHT30;63319;46.046;17.802;2023-10-31T18:38:43;11.06;88.34
74792;SHT30;63319;46.046;17.802;2023-10-31T18:41:46;11.23;89.33
74792;SHT30;63319;46.046;17.802;2023-10-31T18:45:08;11.43;87.89
74792;SHT30;63319;46.046;17.802;2023-10-31T18:48:14;11.62;88.31
74792;SHT30;63319;46.046;17.802;2023-10-31T18:51:17;11.56;87.28
74792;SHT30;63319;46.046;17.802;2023-10-31T18:54:22;11.52;87.44
74792;SHT30;63319;46.046;17.802;2023-10-31T18:57:26;11.53;87.37
74792;SHT30;63319;46.046;17.802;2023-10-31T19:00:32;11.46;88.01
74792;SHT30;63319;46.046;17.802;2023-10-31T19:03:36;11.60;86.84
74792;SHT30;63319;46.046;17.802;2023-10-31T19:06:39;11.67;87.73